Time;durP1;ratioP1;P1;durP2;ratioP2;P2;SDS_P1;SDS_P2;PMS_P1;PMS_P2;Temp;Humidity;BMP_temperature;BMP_pressure;BME280_temperature;BME280_humidity;BME280_pressure;Samples;Min_cycle;Max_cycle;Signal;HPM_P1;HPM_P2
2022/12/30 00:02:18;;;;;;;;;;;24.70;99.90;;;;;;5010112;28;19918;-72
2022/12/30 00:04:44;;;;;;;;;;;24.80;99.90;;;;;;5005959;28;19988;-71
2022/12/30 00:07:11;;;;;;;;;;;24.90;99.90;;;;;;5012970;28;19916;-72
2022/12/30 00:09:38;;;;;;;;;;;24.90;99.90;;;;;;5012692;28;19914;-72
2022/12/30 00:33:06;;;;;;;;;;;25.00;99.90;;;;;;5001699;28;19968;-71
2022/12/30 00:34:29;;;;;;;;;;;25.70;99.90;;;;;;5031430;28;20286;-69
2022/12/30 00:36:56;;;;;;;;;;;26.10;99.90;;;;;;5028849;28;19918;-72
2022/12/30 00:39:23;;;;;;;;;;;26.40;99.90;;;;;;5031857;28;20359;-72
2022/12/30 00:44:35;;;;;;;;;;;26.70;99.90;;;;;;5030946;28;19920;-71
2022/12/30 00:47:02;;;;;;;;;;;26.80;99.90;;;;;;5030914;28;19924;-72
2022/12/30 00:57:43;;;;;;;;;;;27.20;99.90;;;;;;5025028;28;19936;-72
2022/12/30 01:00:11;;;;;;;;;;;27.10;99.90;;;;;;5028876;28;19929;-72
2022/12/30 01:02:37;;;;;;;;;;;27.00;99.90;;;;;;5024624;28;19917;-70
2022/12/30 01:05:05;;;;;;;;;;;27.00;99.90;;;;;;5029261;28;19917;-71
2022/12/30 01:07:32;;;;;;;;;;;27.00;99.90;;;;;;5022525;28;19921;-71
2022/12/30 01:09:59;;;;;;;;;;;27.00;99.90;;;;;;5029594;28;20319;-71
2022/12/30 01:12:26;;;;;;;;;;;26.90;99.90;;;;;;5030424;28;20379;-70
2022/12/30 01:14:53;;;;;;;;;;;26.80;99.90;;;;;;5021987;28;20298;-70
2022/12/30 01:17:26;;;;;;;;;;;26.80;99.90;;;;;;5018385;28;19928;-71
2022/12/30 01:19:52;;;;;;;;;;;26.60;99.90;;;;;;5022000;28;19925;-71
2022/12/30 01:22:19;;;;;;;;;;;26.50;99.90;;;;;;5027401;28;20365;-71
2022/12/30 01:24:45;;;;;;;;;;;26.30;99.90;;;;;;5032503;28;19917;-71
2022/12/30 01:27:12;;;;;;;;;;;26.20;99.90;;;;;;5032670;28;19921;-72
2022/12/30 01:29:41;;;;;;;;;;;26.10;99.90;;;;;;5023394;28;20011;-72
2022/12/30 01:32:09;;;;;;;;;;;26.00;99.90;;;;;;5028082;28;19968;-72
2022/12/30 01:34:36;;;;;;;;;;;25.90;99.90;;;;;;5024811;28;20003;-71
2022/12/30 01:37:03;;;;;;;;;;;25.80;99.90;;;;;;5026549;28;20446;-72
2022/12/30 01:39:30;;;;;;;;;;;25.80;99.90;;;;;;5022109;28;19917;-71
2022/12/30 01:41:57;;;;;;;;;;;25.70;99.90;;;;;;5007869;28;19919;-72
2022/12/30 01:44:42;;;;;;;;;;;25.60;99.90;;;;;;5028624;28;19913;-71
2022/12/30 01:47:09;;;;;;;;;;;25.50;99.90;;;;;;5035419;28;19928;-72
2022/12/30 01:49:38;;;;;;;;;;;25.30;99.90;;;;;;5015251;28;19992;-72
2022/12/30 01:52:04;;;;;;;;;;;25.20;99.90;;;;;;5026018;28;20256;-72
2022/12/30 01:54:32;;;;;;;;;;;25.20;99.90;;;;;;5018725;28;19913;-71
2022/12/30 01:56:58;;;;;;;;;;;25.10;99.90;;;;;;5026716;28;19933;-71
2022/12/30 01:59:27;;;;;;;;;;;25.20;99.90;;;;;;5023705;28;19963;-72
2022/12/30 02:01:54;;;;;;;;;;;25.20;99.90;;;;;;5024382;28;19925;-72
2022/12/30 02:04:25;;;;;;;;;;;25.30;99.90;;;;;;5025379;28;20509;-71
2022/12/30 02:07:20;;;;;;;;;;;25.40;99.90;;;;;;5027009;28;19953;-71
2022/12/30 02:09:47;;;;;;;;;;;25.30;99.90;;;;;;5010204;28;20007;-71
2022/12/30 02:12:14;;;;;;;;;;;25.40;99.90;;;;;;5027718;28;19912;-71
2022/12/30 02:14:42;;;;;;;;;;;25.40;99.90;;;;;;5025516;28;19913;-71
2022/12/30 02:17:12;;;;;;;;;;;25.50;99.90;;;;;;5024580;28;19921;-72
2022/12/30 02:19:54;;;;;;;;;;;25.60;99.90;;;;;;5029968;28;19999;-72
2022/12/30 02:22:42;;;;;;;;;;;25.70;99.90;;;;;;5027899;28;20337;-74
2022/12/30 02:25:14;;;;;;;;;;;25.90;99.90;;;;;;5025586;28;19923;-71
2022/12/30 02:27:41;;;;;;;;;;;26.00;99.90;;;;;;5022103;28;19956;-72
2022/12/30 02:30:18;;;;;;;;;;;26.00;99.90;;;;;;5027082;28;20380;-75
2022/12/30 02:32:56;;;;;;;;;;;26.20;99.90;;;;;;5030083;28;19952;-72
2022/12/30 02:35:38;;;;;;;;;;;26.40;99.90;;;;;;5032681;28;19913;-70
2022/12/30 02:38:30;;;;;;;;;;;26.30;99.80;;;;;;5022128;28;19913;-70
2022/12/30 02:46:56;;;;;;;;;;;26.50;99.20;;;;;;5028950;28;19971;-72
2022/12/30 02:49:23;;;;;;;;;;;26.50;99.20;;;;;;5026131;28;20288;-71
2022/12/30 02:54:39;;;;;;;;;;;26.50;98.80;;;;;;5030427;28;19943;-72
2022/12/30 02:57:24;;;;;;;;;;;26.50;98.70;;;;;;5034336;28;19925;-72
2022/12/30 03:05:47;;;;;;;;;;;26.70;98.10;;;;;;5028215;28;19963;-73
2022/12/30 03:08:23;;;;;;;;;;;26.60;98.00;;;;;;5025717;28;20393;-70
2022/12/30 03:13:56;;;;;;;;;;;26.50;97.70;;;;;;5022936;28;20383;-70
2022/12/30 03:16:22;;;;;;;;;;;26.40;98.00;;;;;;5016125;28;19917;-72
2022/12/30 03:18:50;;;;;;;;;;;26.40;97.80;;;;;;5019050;28;20027;-72
2022/12/30 03:21:18;;;;;;;;;;;26.40;97.70;;;;;;5039556;28;19933;-70
2022/12/30 03:29:18;;;;;;;;;;;26.30;97.90;;;;;;5024917;28;19923;-70
2022/12/30 03:31:45;;;;;;;;;;;26.30;97.80;;;;;;5017598;28;19919;-73
2022/12/30 03:34:12;;;;;;;;;;;26.30;97.40;;;;;;5024855;28;20003;-70
2022/12/30 03:36:41;;;;;;;;;;;26.30;97.90;;;;;;5027363;28;19968;-71
2022/12/30 03:39:14;;;;;;;;;;;26.30;97.80;;;;;;5023266;28;19983;-71
2022/12/30 03:41:42;;;;;;;;;;;26.30;97.90;;;;;;5018823;28;19928;-72
2022/12/30 03:44:10;;;;;;;;;;;26.30;97.80;;;;;;5023365;28;19913;-72
2022/12/30 03:46:36;;;;;;;;;;;26.20;97.80;;;;;;5024864;28;19922;-72
2022/12/30 03:49:03;;;;;;;;;;;26.20;97.70;;;;;;5021007;28;19917;-72
2022/12/30 03:51:30;;;;;;;;;;;26.00;97.40;;;;;;5029152;28;19922;-73
2022/12/30 03:53:56;;;;;;;;;;;25.80;97.50;;;;;;5023960;28;19918;-72
2022/12/30 03:56:23;;;;;;;;;;;25.70;97.80;;;;;;5024534;28;19913;-73
2022/12/30 03:58:50;;;;;;;;;;;25.70;97.80;;;;;;5023077;28;19917;-73
2022/12/30 04:01:17;;;;;;;;;;;25.60;97.00;;;;;;5031184;28;19925;-72
2022/12/30 04:03:43;;;;;;;;;;;25.60;97.30;;;;;;5027018;28;20334;-73
2022/12/30 04:06:10;;;;;;;;;;;25.50;96.60;;;;;;5036445;28;19917;-70
2022/12/30 04:08:37;;;;;;;;;;;25.50;96.70;;;;;;5014957;28;20338;-72
2022/12/30 04:11:03;;;;;;;;;;;25.50;96.40;;;;;;5025781;28;19952;-72
2022/12/30 04:13:30;;;;;;;;;;;25.50;96.70;;;;;;5025533;28;20004;-72
2022/12/30 04:15:57;;;;;;;;;;;25.50;96.80;;;;;;5023495;28;20375;-72
2022/12/30 04:18:27;;;;;;;;;;;25.40;96.80;;;;;;5031314;28;19936;-72
2022/12/30 04:20:54;;;;;;;;;;;25.50;97.00;;;;;;5020692;28;19975;-73
2022/12/30 04:23:21;;;;;;;;;;;25.50;96.60;;;;;;5032927;28;19928;-73
2022/12/30 04:25:47;;;;;;;;;;;25.50;96.90;;;;;;5024213;28;20312;-72
2022/12/30 04:28:15;;;;;;;;;;;25.60;96.80;;;;;;5030882;28;19920;-72
2022/12/30 04:30:41;;;;;;;;;;;25.60;96.40;;;;;;5026996;28;19913;-73
2022/12/30 04:33:08;;;;;;;;;;;25.70;96.50;;;;;;5042968;28;20260;-73
2022/12/30 04:35:35;;;;;;;;;;;25.80;96.30;;;;;;5022914;28;19924;-70
2022/12/30 04:38:01;;;;;;;;;;;25.80;95.70;;;;;;5038211;28;19916;-71
2022/12/30 04:40:31;;;;;;;;;;;25.80;95.40;;;;;;5028296;28;19928;-71
2022/12/30 04:42:57;;;;;;;;;;;25.80;95.60;;;;;;5029465;28;19940;-70
2022/12/30 04:45:24;;;;;;;;;;;25.80;95.90;;;;;;5029598;28;19920;-71
2022/12/30 04:47:50;;;;;;;;;;;25.80;95.50;;;;;;5023148;28;19917;-71
2022/12/30 04:50:17;;;;;;;;;;;25.80;95.10;;;;;;5025973;28;19920;-71
2022/12/30 04:52:44;;;;;;;;;;;25.80;94.80;;;;;;5038592;28;19958;-71
2022/12/30 04:55:10;;;;;;;;;;;25.70;94.60;;;;;;5027960;28;19968;-73
2022/12/30 04:57:37;;;;;;;;;;;25.70;95.10;;;;;;5029782;28;19920;-73
2022/12/30 05:00:05;;;;;;;;;;;25.80;95.70;;;;;;5019629;28;19925;-73
2022/12/30 05:02:32;;;;;;;;;;;25.70;95.40;;;;;;5024968;28;19921;-72
2022/12/30 05:04:58;;;;;;;;;;;25.80;95.80;;;;;;5026855;28;19953;-72
2022/12/30 05:07:25;;;;;;;;;;;25.80;95.90;;;;;;5031059;28;19920;-71
2022/12/30 05:09:52;;;;;;;;;;;25.90;96.00;;;;;;5026438;28;20459;-73
2022/12/30 05:12:18;;;;;;;;;;;25.90;95.90;;;;;;5032584;28;19945;-71
2022/12/30 05:14:49;;;;;;;;;;;26.00;95.60;;;;;;5028092;28;19913;-72
2022/12/30 05:17:16;;;;;;;;;;;26.10;95.40;;;;;;5026453;28;19983;-71
2022/12/30 05:19:42;;;;;;;;;;;26.20;95.40;;;;;;5016841;28;19927;-71
2022/12/30 05:22:09;;;;;;;;;;;26.30;95.60;;;;;;5029263;28;19928;-71
2022/12/30 05:27:20;;;;;;;;;;;26.30;96.10;;;;;;5010226;28;19920;-73
2022/12/30 05:29:47;;;;;;;;;;;26.30;96.20;;;;;;5013402;28;19917;-73
2022/12/30 05:32:17;;;;;;;;;;;26.40;96.10;;;;;;5012853;28;19913;-73
2022/12/30 05:34:43;;;;;;;;;;;26.30;96.20;;;;;;5010543;28;19914;-71
2022/12/30 05:37:10;;;;;;;;;;;26.30;96.00;;;;;;5016758;28;19964;-72
2022/12/30 05:39:36;;;;;;;;;;;26.20;95.90;;;;;;4998007;28;19914;-71
2022/12/30 05:42:03;;;;;;;;;;;26.10;95.90;;;;;;5006777;28;19971;-71
2022/12/30 05:44:31;;;;;;;;;;;25.90;96.20;;;;;;5008684;28;19928;-70
2022/12/30 05:46:57;;;;;;;;;;;25.80;96.60;;;;;;5011910;28;19921;-71
2022/12/30 05:49:24;;;;;;;;;;;25.80;95.90;;;;;;4988601;28;19921;-72
2022/12/30 05:51:51;;;;;;;;;;;25.80;95.70;;;;;;5010534;28;20431;-72
2022/12/30 05:54:17;;;;;;;;;;;25.70;95.80;;;;;;5002800;28;19920;-72
2022/12/30 05:56:44;;;;;;;;;;;25.80;95.90;;;;;;5005726;28;19920;-72
2022/12/30 05:59:15;;;;;;;;;;;25.80;95.60;;;;;;5005712;28;19914;-71
2022/12/30 06:01:41;;;;;;;;;;;25.80;95.70;;;;;;5015315;28;20295;-72
2022/12/30 06:04:08;;;;;;;;;;;25.90;96.30;;;;;;5004553;28;19918;-71
2022/12/30 06:06:35;;;;;;;;;;;25.80;96.70;;;;;;5013203;28;19940;-71
2022/12/30 06:09:05;;;;;;;;;;;25.80;97.10;;;;;;5006765;28;19921;-70
2022/12/30 06:11:31;;;;;;;;;;;25.80;97.40;;;;;;5021642;28;19918;-71
2022/12/30 06:13:58;;;;;;;;;;;25.70;97.70;;;;;;5010396;28;19933;-71
2022/12/30 06:16:25;;;;;;;;;;;25.70;97.60;;;;;;5010704;28;19914;-70
2022/12/30 06:18:51;;;;;;;;;;;25.70;97.60;;;;;;5009270;28;19924;-71
2022/12/30 06:21:18;;;;;;;;;;;25.70;97.90;;;;;;5005110;28;20008;-71
2022/12/30 06:23:45;;;;;;;;;;;25.60;97.80;;;;;;4987532;28;19918;-71
2022/12/30 06:26:12;;;;;;;;;;;25.50;98.10;;;;;;5016414;28;19924;-72
2022/12/30 06:28:43;;;;;;;;;;;25.40;98.20;;;;;;5008887;28;20206;-73
2022/12/30 06:31:09;;;;;;;;;;;25.30;98.50;;;;;;5013779;28;19927;-71
2022/12/30 06:33:36;;;;;;;;;;;25.30;98.70;;;;;;5001267;28;19918;-72
2022/12/30 06:36:03;;;;;;;;;;;25.40;98.90;;;;;;4996886;28;19917;-71
2022/12/30 06:38:29;;;;;;;;;;;25.40;98.70;;;;;;5010358;28;19914;-72
2022/12/30 06:40:56;;;;;;;;;;;25.40;98.80;;;;;;5008512;28;19925;-69
2022/12/30 06:43:23;;;;;;;;;;;25.50;98.70;;;;;;4999610;28;19918;-70
2022/12/30 06:45:50;;;;;;;;;;;25.50;98.90;;;;;;5010377;28;20025;-71
2022/12/30 06:48:16;;;;;;;;;;;25.40;99.20;;;;;;5010564;28;19956;-72
2022/12/30 06:50:43;;;;;;;;;;;25.40;99.30;;;;;;5009295;28;20312;-71
2022/12/30 06:53:10;;;;;;;;;;;25.30;99.50;;;;;;5008095;28;19919;-71
2022/12/30 06:55:37;;;;;;;;;;;25.30;99.60;;;;;;4995673;28;19985;-71
2022/12/30 06:58:04;;;;;;;;;;;25.30;99.60;;;;;;5006422;28;19921;-69
2022/12/30 07:00:31;;;;;;;;;;;25.30;99.60;;;;;;5014992;28;19932;-71
2022/12/30 07:02:58;;;;;;;;;;;25.40;99.40;;;;;;5008635;28;19932;-72
2022/12/30 07:05:25;;;;;;;;;;;25.40;99.10;;;;;;5015037;28;19920;-70
2022/12/30 07:07:52;;;;;;;;;;;25.40;99.20;;;;;;5013895;28;19918;-73
2022/12/30 07:10:18;;;;;;;;;;;25.30;99.20;;;;;;5009726;28;20359;-72
2022/12/30 07:12:45;;;;;;;;;;;25.20;99.20;;;;;;5009197;28;19952;-72
2022/12/30 07:15:12;;;;;;;;;;;25.20;99.40;;;;;;5011700;28;20033;-70
2022/12/30 07:17:39;;;;;;;;;;;25.10;99.60;;;;;;5008246;28;19924;-70
2022/12/30 07:20:06;;;;;;;;;;;24.90;99.70;;;;;;5007939;28;19921;-71
2022/12/30 07:22:33;;;;;;;;;;;24.90;99.80;;;;;;5005381;28;20441;-70
2022/12/30 07:25:00;;;;;;;;;;;24.90;99.40;;;;;;5007352;28;19928;-72
2022/12/30 07:27:27;;;;;;;;;;;24.90;99.20;;;;;;5007421;28;19921;-70
2022/12/30 07:29:54;;;;;;;;;;;24.90;99.10;;;;;;5001364;28;19917;-72
2022/12/30 07:32:20;;;;;;;;;;;24.90;98.70;;;;;;5008587;28;20296;-72
2022/12/30 07:34:47;;;;;;;;;;;24.80;98.90;;;;;;4998625;28;19937;-71
2022/12/30 07:37:13;;;;;;;;;;;24.70;99.20;;;;;;5007423;28;19918;-73
2022/12/30 07:39:41;;;;;;;;;;;24.70;99.00;;;;;;5003413;28;19920;-73
2022/12/30 07:42:07;;;;;;;;;;;24.70;99.00;;;;;;4997955;28;19944;-70
2022/12/30 07:44:37;;;;;;;;;;;24.70;99.40;;;;;;5008410;28;20286;-71
2022/12/30 07:47:04;;;;;;;;;;;24.70;99.60;;;;;;5012901;28;19924;-72
2022/12/30 07:49:31;;;;;;;;;;;24.70;99.60;;;;;;5001693;28;19914;-72
2022/12/30 07:51:58;;;;;;;;;;;24.60;99.70;;;;;;5021743;28;19917;-70
2022/12/30 07:54:24;;;;;;;;;;;24.60;99.80;;;;;;5007312;28;19964;-73
2022/12/30 07:56:52;;;;;;;;;;;24.60;99.90;;;;;;5008803;28;19920;-71
2022/12/30 07:59:18;;;;;;;;;;;24.60;99.90;;;;;;5004636;28;19913;-72
2022/12/30 08:01:45;;;;;;;;;;;24.50;99.80;;;;;;5016441;28;20012;-72
2022/12/30 08:04:12;;;;;;;;;;;24.50;99.50;;;;;;5001008;28;20463;-70
2022/12/30 08:06:39;;;;;;;;;;;24.50;99.80;;;;;;5003897;28;19914;-70
2022/12/30 08:09:06;;;;;;;;;;;24.40;99.80;;;;;;5005622;28;19918;-71
2022/12/30 08:11:33;;;;;;;;;;;24.40;99.90;;;;;;5010364;28;20299;-69
2022/12/30 08:14:00;;;;;;;;;;;24.30;99.90;;;;;;5009987;28;20402;-71
2022/12/30 08:16:28;;;;;;;;;;;24.30;99.90;;;;;;4999993;28;20042;-69
2022/12/30 08:18:54;;;;;;;;;;;24.20;99.90;;;;;;5015296;28;19925;-71
2022/12/30 08:21:22;;;;;;;;;;;24.20;99.90;;;;;;5010971;28;19921;-69
2022/12/30 08:23:49;;;;;;;;;;;24.10;99.90;;;;;;5010306;28;20327;-69
2022/12/30 08:26:17;;;;;;;;;;;24.10;99.90;;;;;;5025681;28;19914;-71
2022/12/30 08:28:44;;;;;;;;;;;24.10;99.90;;;;;;5021345;28;19960;-70
2022/12/30 08:31:21;;;;;;;;;;;24.00;99.90;;;;;;5023806;28;19913;-71
2022/12/30 08:33:48;;;;;;;;;;;24.00;99.90;;;;;;5029162;28;19917;-71
2022/12/30 08:36:16;;;;;;;;;;;23.90;99.90;;;;;;5028114;28;19941;-70
2022/12/30 08:38:44;;;;;;;;;;;23.90;99.90;;;;;;5031144;28;19925;-71
2022/12/30 08:41:15;;;;;;;;;;;24.00;99.90;;;;;;5023682;28;19921;-70
2022/12/30 08:43:42;;;;;;;;;;;23.90;99.90;;;;;;5025394;28;19914;-70
2022/12/30 08:46:08;;;;;;;;;;;23.90;99.90;;;;;;5028512;28;19913;-69
2022/12/30 08:48:35;;;;;;;;;;;23.80;99.90;;;;;;5028917;28;19949;-69
2022/12/30 08:51:02;;;;;;;;;;;23.80;99.90;;;;;;5026240;28;19909;-70
2022/12/30 08:53:29;;;;;;;;;;;23.70;99.90;;;;;;5028825;28;19921;-69
2022/12/30 08:56:05;;;;;;;;;;;23.60;99.90;;;;;;5028068;28;19992;-69
2022/12/30 08:58:33;;;;;;;;;;;23.60;99.90;;;;;;5024264;28;19917;-71
2022/12/30 09:01:06;;;;;;;;;;;23.50;99.90;;;;;;5029255;28;20020;-69
2022/12/30 09:03:32;;;;;;;;;;;23.50;99.90;;;;;;5024349;28;19951;-70
2022/12/30 09:05:59;;;;;;;;;;;23.40;99.90;;;;;;5030453;28;19924;-71
2022/12/30 09:08:26;;;;;;;;;;;23.40;99.90;;;;;;5029906;28;19913;-68
2022/12/30 09:10:57;;;;;;;;;;;23.40;99.90;;;;;;5025970;28;19956;-71
2022/12/30 09:13:24;;;;;;;;;;;23.30;99.90;;;;;;5029088;28;19967;-71
2022/12/30 09:15:51;;;;;;;;;;;23.30;99.90;;;;;;5029602;28;19945;-71
2022/12/30 09:18:24;;;;;;;;;;;23.20;99.90;;;;;;5003738;28;19913;-69
2022/12/30 09:20:50;;;;;;;;;;;23.10;99.90;;;;;;5032340;28;19921;-70
2022/12/30 09:23:20;;;;;;;;;;;23.00;99.90;;;;;;5011688;28;20268;-69
2022/12/30 09:25:48;;;;;;;;;;;23.00;99.90;;;;;;5016057;28;19937;-70
2022/12/30 09:28:14;;;;;;;;;;;22.90;99.90;;;;;;5009484;28;19920;-72
2022/12/30 09:30:41;;;;;;;;;;;22.90;99.90;;;;;;5016042;28;19918;-70
2022/12/30 09:33:08;;;;;;;;;;;22.90;99.90;;;;;;5012797;28;19925;-71
2022/12/30 09:35:35;;;;;;;;;;;22.90;99.90;;;;;;5010492;28;19945;-71
2022/12/30 09:38:02;;;;;;;;;;;22.90;99.90;;;;;;5019036;28;19935;-70
2022/12/30 09:40:48;;;;;;;;;;;22.90;99.90;;;;;;5014281;28;20511;-70
2022/12/30 09:43:24;;;;;;;;;;;22.80;99.90;;;;;;4997254;28;20008;-70
2022/12/30 09:46:09;;;;;;;;;;;22.80;99.90;;;;;;5008107;28;20013;-70
2022/12/30 09:48:41;;;;;;;;;;;22.70;99.90;;;;;;5010355;28;19914;-71
2022/12/30 09:51:11;;;;;;;;;;;22.60;99.90;;;;;;5011893;28;19918;-70
2022/12/30 09:53:50;;;;;;;;;;;22.60;99.90;;;;;;5007811;28;19967;-70
2022/12/30 09:56:30;;;;;;;;;;;22.60;99.90;;;;;;5003431;28;19940;-70
2022/12/30 09:58:59;;;;;;;;;;;22.50;99.90;;;;;;5003654;28;19952;-70
2022/12/30 10:01:30;;;;;;;;;;;22.50;99.90;;;;;;5013002;28;19964;-70
2022/12/30 10:03:58;;;;;;;;;;;22.40;99.90;;;;;;5004548;28;20490;-70
2022/12/30 10:06:30;;;;;;;;;;;22.40;99.90;;;;;;5005595;28;19921;-69
2022/12/30 10:09:16;;;;;;;;;;;22.30;99.90;;;;;;5016386;28;19919;-69
2022/12/30 10:11:53;;;;;;;;;;;22.20;99.90;;;;;;4996369;28;19964;-71
2022/12/30 10:14:31;;;;;;;;;;;22.20;99.90;;;;;;5010920;28;20495;-69
2022/12/30 10:16:58;;;;;;;;;;;22.20;99.90;;;;;;5008836;28;20295;-69
2022/12/30 10:19:33;;;;;;;;;;;22.20;99.90;;;;;;5002386;28;20011;-70
2022/12/30 10:22:04;;;;;;;;;;;22.20;99.90;;;;;;5015690;28;19932;-70
2022/12/30 10:24:40;;;;;;;;;;;22.20;99.90;;;;;;5028904;28;19912;-71
2022/12/30 10:27:27;;;;;;;;;;;22.10;99.90;;;;;;5031192;28;19917;-71
2022/12/30 10:29:55;;;;;;;;;;;22.10;99.90;;;;;;5009796;28;19924;-71
2022/12/30 10:32:25;;;;;;;;;;;22.00;99.90;;;;;;5025138;28;19913;-71
2022/12/30 10:34:58;;;;;;;;;;;22.00;99.90;;;;;;5021771;28;19963;-70
2022/12/30 10:37:32;;;;;;;;;;;22.00;99.90;;;;;;5030314;28;19995;-73
2022/12/30 10:39:59;;;;;;;;;;;22.10;99.90;;;;;;5019537;28;19921;-71
2022/12/30 10:42:51;;;;;;;;;;;22.10;99.90;;;;;;5011064;28;19917;-71
2022/12/30 10:45:35;;;;;;;;;;;22.00;99.90;;;;;;5033974;28;20279;-70
2022/12/30 10:48:05;;;;;;;;;;;21.90;99.90;;;;;;5024253;28;19917;-70
2022/12/30 10:50:37;;;;;;;;;;;21.90;99.90;;;;;;5031872;28;19998;-70
2022/12/30 10:53:06;;;;;;;;;;;21.80;99.90;;;;;;5027657;28;19928;-70
2022/12/30 10:55:33;;;;;;;;;;;21.70;99.90;;;;;;5037374;28;19917;-70
2022/12/30 10:58:03;;;;;;;;;;;21.60;99.90;;;;;;5022167;28;20003;-70
2022/12/30 11:00:39;;;;;;;;;;;21.50;99.90;;;;;;5020847;28;19936;-72
2022/12/30 11:03:20;;;;;;;;;;;21.50;99.90;;;;;;5026888;28;19917;-71
2022/12/30 11:05:47;;;;;;;;;;;21.40;99.90;;;;;;5027902;28;20401;-74
2022/12/30 11:08:24;;;;;;;;;;;21.40;99.90;;;;;;5025219;28;20012;-72
2022/12/30 11:11:00;;;;;;;;;;;21.40;99.90;;;;;;5030588;28;19956;-72
2022/12/30 11:16:12;;;;;;;;;;;21.10;99.90;;;;;;5037296;28;19951;-72
2022/12/30 11:18:39;;;;;;;;;;;21.10;99.90;;;;;;5023115;28;19918;-73
2022/12/30 11:21:06;;;;;;;;;;;21.00;99.90;;;;;;5025879;28;20410;-73
2022/12/30 11:23:34;;;;;;;;;;;20.90;99.90;;;;;;5022727;28;19947;-72
2022/12/30 11:26:02;;;;;;;;;;;20.80;99.90;;;;;;5018324;28;19931;-73
2022/12/30 11:28:36;;;;;;;;;;;20.80;99.90;;;;;;5023131;28;19913;-73
2022/12/30 11:31:04;;;;;;;;;;;20.70;99.90;;;;;;5022734;28;19928;-72
2022/12/30 11:33:35;;;;;;;;;;;20.80;99.90;;;;;;5027166;28;19940;-69
2022/12/30 11:36:20;;;;;;;;;;;20.70;99.90;;;;;;5028309;28;19999;-72
2022/12/30 11:38:50;;;;;;;;;;;20.70;99.90;;;;;;5019400;28;19913;-70
2022/12/30 11:41:17;;;;;;;;;;;20.60;99.90;;;;;;5034188;28;19921;-73
2022/12/30 11:43:51;;;;;;;;;;;20.60;99.90;;;;;;5029193;28;19924;-70
2022/12/30 11:46:20;;;;;;;;;;;20.60;99.90;;;;;;5036521;28;20023;-70
2022/12/30 11:48:54;;;;;;;;;;;20.50;99.90;;;;;;5028382;28;20016;-72
2022/12/30 11:51:23;;;;;;;;;;;20.40;99.90;;;;;;5027984;28;19913;-71
2022/12/30 11:54:00;;;;;;;;;;;20.40;99.90;;;;;;5030866;28;19931;-71
2022/12/30 11:56:28;;;;;;;;;;;20.30;99.90;;;;;;5027552;28;19913;-72
2022/12/30 11:58:55;;;;;;;;;;;20.30;99.90;;;;;;5022268;28;19921;-73
2022/12/30 12:01:22;;;;;;;;;;;20.30;99.90;;;;;;5026272;28;19921;-71
2022/12/30 12:03:51;;;;;;;;;;;20.20;99.90;;;;;;5027737;28;19925;-71
2022/12/30 12:06:18;;;;;;;;;;;20.20;99.90;;;;;;5029461;28;20012;-71
2022/12/30 12:08:58;;;;;;;;;;;20.10;99.90;;;;;;5026744;28;19976;-71
2022/12/30 12:11:30;;;;;;;;;;;20.10;99.90;;;;;;5026156;28;19917;-72
2022/12/30 12:14:05;;;;;;;;;;;20.10;99.90;;;;;;5013757;28;19913;-71
2022/12/30 12:16:34;;;;;;;;;;;20.00;99.90;;;;;;5034318;28;20364;-70
2022/12/30 12:19:06;;;;;;;;;;;19.90;99.90;;;;;;5027435;28;20051;-70
2022/12/30 12:21:35;;;;;;;;;;;19.90;99.90;;;;;;5027443;28;20297;-70
2022/12/30 12:24:05;;;;;;;;;;;19.90;99.90;;;;;;5034109;28;19964;-71
2022/12/30 12:26:37;;;;;;;;;;;19.90;99.90;;;;;;5041128;28;19979;-71
2022/12/30 12:29:04;;;;;;;;;;;19.90;99.90;;;;;;5024667;28;20402;-70
2022/12/30 12:31:57;;;;;;;;;;;19.80;99.90;;;;;;5039370;28;20418;-71
2022/12/30 12:34:42;;;;;;;;;;;19.80;99.90;;;;;;5026365;28;19913;-69
2022/12/30 12:37:22;;;;;;;;;;;19.80;99.90;;;;;;5029416;28;20007;-69
2022/12/30 12:39:58;;;;;;;;;;;19.70;99.90;;;;;;5015098;28;19948;-70
2022/12/30 12:42:36;;;;;;;;;;;19.70;99.90;;;;;;5029070;28;19972;-76
2022/12/30 12:45:15;;;;;;;;;;;19.70;99.90;;;;;;5022862;28;20269;-71
2022/12/30 12:47:47;;;;;;;;;;;19.60;99.90;;;;;;5028059;28;19997;-74
2022/12/30 12:50:20;;;;;;;;;;;19.50;99.90;;;;;;5016738;28;19914;-74
2022/12/30 12:52:53;;;;;;;;;;;19.40;99.90;;;;;;5014158;28;19921;-75
2022/12/30 12:55:37;;;;;;;;;;;19.40;99.90;;;;;;5022714;28;20364;-74
2022/12/30 12:58:10;;;;;;;;;;;19.30;99.90;;;;;;5024100;28;19913;-76
2022/12/30 13:00:52;;;;;;;;;;;19.30;99.90;;;;;;5019617;28;20007;-76
2022/12/30 13:03:27;;;;;;;;;;;19.30;99.90;;;;;;5025702;28;19953;-75
2022/12/30 13:05:53;;;;;;;;;;;19.20;99.90;;;;;;5031722;28;20257;-76
2022/12/30 13:08:47;;;;;;;;;;;19.20;99.90;;;;;;5023767;28;20268;-76
2022/12/30 13:11:17;;;;;;;;;;;19.20;99.90;;;;;;5031772;28;19913;-73
2022/12/30 13:13:54;;;;;;;;;;;19.20;99.90;;;;;;5030050;28;19924;-73
2022/12/30 13:16:23;;;;;;;;;;;19.20;99.90;;;;;;5038596;28;19913;-69
2022/12/30 13:18:51;;;;;;;;;;;19.20;99.90;;;;;;5031488;28;19943;-74
2022/12/30 13:21:27;;;;;;;;;;;19.20;99.90;;;;;;5008711;28;20482;-73
2022/12/30 13:23:57;;;;;;;;;;;19.10;99.90;;;;;;5027603;28;19960;-72
2022/12/30 13:26:25;;;;;;;;;;;19.10;99.90;;;;;;5026596;28;19917;-69
2022/12/30 13:28:55;;;;;;;;;;;19.10;99.90;;;;;;5028209;28;20395;-70
2022/12/30 13:31:25;;;;;;;;;;;19.10;99.90;;;;;;5025308;28;20488;-72
2022/12/30 13:34:12;;;;;;;;;;;19.00;99.90;;;;;;5025314;28;19995;-74
2022/12/30 13:36:56;;;;;;;;;;;19.00;99.90;;;;;;5023888;28;20402;-73
2022/12/30 13:39:32;;;;;;;;;;;19.00;99.90;;;;;;5024714;28;20409;-77
2022/12/30 13:42:06;;;;;;;;;;;19.00;99.90;;;;;;5009108;28;19917;-71
2022/12/30 13:44:35;;;;;;;;;;;18.90;99.90;;;;;;5028618;28;19921;-71
2022/12/30 13:47:03;;;;;;;;;;;18.90;99.90;;;;;;5033130;28;20418;-71
2022/12/30 13:49:36;;;;;;;;;;;18.90;99.90;;;;;;5026139;28;19924;-74
2022/12/30 13:52:05;;;;;;;;;;;18.80;99.90;;;;;;5016816;28;19921;-71
2022/12/30 13:54:33;;;;;;;;;;;18.80;99.90;;;;;;5019001;28;19913;-72
2022/12/30 13:57:01;;;;;;;;;;;18.80;99.90;;;;;;5028095;28;19997;-72
2022/12/30 13:59:38;;;;;;;;;;;18.70;99.90;;;;;;5028343;28;20004;-71
2022/12/30 14:02:17;;;;;;;;;;;18.70;99.90;;;;;;5026336;28;19917;-72
2022/12/30 14:04:45;;;;;;;;;;;18.70;99.90;;;;;;5025039;28;20318;-76
2022/12/30 14:07:30;;;;;;;;;;;18.70;99.90;;;;;;5008896;28;19917;-75
2022/12/30 14:10:15;;;;;;;;;;;18.60;99.90;;;;;;5029809;28;19917;-75
2022/12/30 14:12:43;;;;;;;;;;;18.60;99.90;;;;;;5018075;28;19924;-71
2022/12/30 14:15:27;;;;;;;;;;;18.60;99.90;;;;;;5028547;28;20294;-72
2022/12/30 14:17:55;;;;;;;;;;;18.70;99.90;;;;;;5021370;28;19913;-76
2022/12/30 14:20:26;;;;;;;;;;;18.60;99.90;;;;;;5010090;28;19929;-74
2022/12/30 14:22:54;;;;;;;;;;;18.60;99.90;;;;;;5006102;28;20575;-71
2022/12/30 14:25:27;;;;;;;;;;;18.60;99.90;;;;;;5002912;28;19914;-75
2022/12/30 14:28:13;;;;;;;;;;;18.60;99.90;;;;;;5005074;28;19976;-75
2022/12/30 14:30:47;;;;;;;;;;;18.60;99.90;;;;;;4985791;28;20017;-74
2022/12/30 14:33:14;;;;;;;;;;;18.60;99.90;;;;;;4998836;28;19917;-73
2022/12/30 14:35:51;;;;;;;;;;;18.70;99.90;;;;;;5005006;28;19914;-76
2022/12/30 14:38:29;;;;;;;;;;;18.70;99.90;;;;;;5001902;28;19960;-74
2022/12/30 14:40:57;;;;;;;;;;;18.70;99.90;;;;;;5010919;28;19976;-76
2022/12/30 14:43:25;;;;;;;;;;;18.70;99.90;;;;;;5009078;28;19917;-74
2022/12/30 14:46:12;;;;;;;;;;;18.70;99.90;;;;;;4999206;28;19913;-76
2022/12/30 14:48:56;;;;;;;;;;;18.70;99.90;;;;;;5000061;28;19979;-72
2022/12/30 14:51:24;;;;;;;;;;;18.70;99.90;;;;;;5002712;28;20680;-71
2022/12/30 14:53:50;;;;;;;;;;;18.70;99.90;;;;;;5014059;28;19914;-73
2022/12/30 14:56:19;;;;;;;;;;;18.70;99.90;;;;;;5011194;28;19936;-72
2022/12/30 14:58:46;;;;;;;;;;;18.70;99.90;;;;;;4999488;28;20356;-74
2022/12/30 15:01:13;;;;;;;;;;;18.70;99.90;;;;;;4995632;28;19926;-74
2022/12/30 15:03:40;;;;;;;;;;;18.70;99.90;;;;;;5000958;28;19944;-71
2022/12/30 15:06:07;;;;;;;;;;;18.60;99.90;;;;;;5000831;28;19944;-74
2022/12/30 15:08:39;;;;;;;;;;;18.70;99.90;;;;;;5003819;28;19914;-75
2022/12/30 15:11:08;;;;;;;;;;;18.60;99.90;;;;;;5005637;28;20004;-74
2022/12/30 15:13:37;;;;;;;;;;;18.60;99.90;;;;;;5009719;28;19917;-74
2022/12/30 15:16:24;;;;;;;;;;;18.60;99.90;;;;;;5010311;28;19948;-76
2022/12/30 15:18:52;;;;;;;;;;;18.50;99.90;;;;;;5007227;28;20387;-72
2022/12/30 15:21:19;;;;;;;;;;;18.60;99.90;;;;;;5008267;28;19929;-77
2022/12/30 15:23:56;;;;;;;;;;;18.60;99.90;;;;;;5008366;28;19987;-75
2022/12/30 15:26:22;;;;;;;;;;;18.50;99.90;;;;;;5011132;28;19918;-75
2022/12/30 15:28:49;;;;;;;;;;;18.50;99.90;;;;;;5009040;28;19914;-76
2022/12/30 15:31:20;;;;;;;;;;;18.50;99.90;;;;;;5006501;28;20387;-74
2022/12/30 15:33:56;;;;;;;;;;;18.50;99.90;;;;;;5000172;28;19924;-70